createdAt,value
2022-09-15T00:01:11.662Z,74.29
2022-09-15T00:03:40.127Z,74.50
2022-09-15T00:06:09.120Z,74.49
2022-09-15T00:08:36.688Z,74.57
2022-09-15T00:11:25.849Z,74.80
2022-09-15T00:13:55.144Z,74.32
2022-09-15T00:16:24.424Z,74.32
2022-09-15T00:18:52.181Z,74.86
2022-09-15T00:21:23.808Z,74.35
2022-09-15T00:23:51.600Z,74.39
2022-09-15T00:26:24.096Z,74.21
2022-09-15T00:28:52.431Z,74.45
2022-09-15T00:31:22.821Z,74.75
2022-09-15T00:33:52.962Z,75.27
2022-09-15T00:36:21.823Z,76.05
2022-09-15T00:38:49.148Z,75.73
2022-09-15T00:41:19.688Z,75.71
2022-09-15T00:43:58.877Z,75.95
2022-09-15T00:46:40.150Z,75.60
2022-09-15T00:49:31.097Z,75.89
2022-09-15T00:52:06.965Z,75.55
2022-09-15T00:54:52.431Z,75.48
2022-09-15T00:57:39.442Z,75.65
2022-09-15T01:00:13.254Z,75.50
2022-09-15T01:02:42.987Z,75.57
2022-09-15T01:05:14.477Z,75.63
2022-09-15T01:07:57.633Z,75.91
2022-09-15T01:10:38.592Z,75.84
2022-09-15T01:13:09.499Z,75.82
2022-09-15T01:15:59.553Z,75.77
2022-09-15T01:18:57.443Z,75.58
2022-09-15T01:22:07.181Z,75.41
2022-09-15T01:25:27.729Z,74.83
2022-09-15T01:27:57.195Z,75.64
2022-09-15T01:30:25.651Z,75.89
2022-09-15T01:33:07.243Z,76.00
2022-09-15T01:35:50.070Z,75.21
2022-09-15T01:38:54.502Z,75.93
2022-09-15T01:41:31.618Z,76.00
2022-09-15T01:44:05.597Z,75.89
2022-09-15T01:46:42.884Z,75.92
2022-09-15T01:49:12.482Z,75.94
2022-09-15T01:51:41.409Z,76.04
2022-09-15T01:54:10.311Z,76.31
2022-09-15T01:56:38.832Z,76.05
2022-09-15T01:59:06.131Z,76.22
2022-09-15T02:01:47.107Z,76.15
2022-09-15T02:04:21.722Z,76.15
2022-09-15T02:06:58.988Z,76.55
2022-09-15T02:09:36.800Z,76.58
2022-09-15T02:12:33.935Z,76.87
2022-09-15T02:15:08.713Z,76.50
2022-09-15T02:17:54.416Z,76.66
2022-09-15T02:20:34.374Z,76.66
2022-09-15T02:23:09.947Z,76.53
2022-09-15T02:25:44.433Z,76.79
2022-09-15T02:28:14.337Z,76.82
2022-09-15T02:30:45.207Z,76.67
2022-09-15T02:33:19.709Z,76.70
2022-09-15T02:35:47.882Z,77.03
2022-09-15T02:38:15.583Z,77.56
2022-09-15T02:40:44.914Z,77.60
2022-09-15T02:43:16.984Z,77.39
2022-09-15T02:45:44.283Z,77.78
2022-09-15T02:48:11.771Z,77.79
2022-09-15T02:50:39.295Z,77.66
2022-09-15T02:53:06.296Z,77.62
2022-09-15T02:55:33.599Z,77.40
2022-09-15T02:58:01.152Z,77.19
2022-09-15T03:00:28.725Z,76.64
2022-09-15T03:02:56.215Z,77.61
2022-09-15T03:05:29.928Z,77.06
2022-09-15T03:07:57.366Z,77.47
2022-09-15T03:10:26.045Z,77.01
2022-09-15T03:12:55.005Z,77.12
2022-09-15T03:15:25.192Z,77.61
2022-09-15T03:17:53.916Z,77.35
2022-09-15T03:20:30.381Z,77.43
2022-09-15T03:22:57.368Z,77.56
2022-09-15T03:25:26.823Z,77.15
2022-09-15T03:27:53.868Z,77.41
2022-09-15T03:30:20.837Z,77.15
2022-09-15T03:32:49.009Z,77.08
2022-09-15T03:35:16.203Z,76.93
2022-09-15T03:37:43.147Z,77.31
2022-09-15T03:40:10.853Z,77.72
2022-09-15T03:42:37.761Z,77.52
2022-09-15T03:45:05.052Z,77.39
2022-09-15T03:47:33.349Z,77.42
2022-09-15T03:50:00.401Z,77.64
2022-09-15T03:52:31.999Z,77.32
2022-09-15T03:54:59.096Z,77.56
2022-09-15T03:57:26.222Z,77.27
2022-09-15T03:59:53.270Z,77.21
2022-09-15T04:02:20.224Z,77.46
2022-09-15T04:04:47.233Z,77.37
2022-09-15T04:07:14.435Z,77.15
2022-09-15T04:09:42.031Z,77.63
2022-09-15T04:12:11.022Z,77.32
2022-09-15T04:14:38.038Z,77.30
2022-09-15T04:17:05.331Z,77.26
2022-09-15T04:19:32.467Z,77.07
2022-09-15T04:21:59.352Z,77.21
2022-09-15T04:24:26.528Z,76.84
2022-09-15T04:26:53.542Z,76.76
2022-09-15T04:29:20.545Z,77.21
2022-09-15T04:31:48.253Z,77.45
2022-09-15T04:34:15.242Z,77.33
2022-09-15T04:36:42.380Z,77.49
2022-09-15T04:39:09.562Z,77.06
2022-09-15T04:41:36.726Z,77.47
2022-09-15T04:44:04.335Z,77.68
2022-09-15T04:46:32.473Z,77.63
2022-09-15T04:49:00.162Z,77.50
2022-09-15T04:51:27.247Z,77.67
2022-09-15T04:53:54.205Z,77.70
2022-09-15T04:56:26.595Z,77.20
2022-09-15T04:59:01.102Z,77.63
2022-09-15T05:01:34.468Z,77.69
2022-09-15T05:04:04.218Z,77.46
2022-09-15T05:06:32.369Z,77.53
2022-09-15T05:08:59.687Z,77.40
2022-09-15T05:11:28.368Z,77.54
2022-09-15T05:13:55.603Z,77.83
2022-09-15T05:16:26.867Z,77.50
2022-09-15T05:18:58.882Z,77.77
2022-09-15T05:21:26.844Z,78.14
2022-09-15T05:23:54.166Z,77.92
2022-09-15T05:26:28.390Z,78.19
2022-09-15T05:28:57.224Z,78.21
2022-09-15T05:31:27.826Z,78.01
2022-09-15T05:33:55.416Z,78.45
2022-09-15T05:36:25.342Z,77.85
2022-09-15T05:38:56.872Z,78.11
2022-09-15T05:41:25.917Z,78.34
2022-09-15T05:43:55.326Z,78.34
2022-09-15T05:46:23.238Z,78.05
2022-09-15T05:48:51.267Z,78.22
2022-09-15T05:51:18.828Z,78.38
2022-09-15T05:53:47.213Z,78.26
2022-09-15T05:56:17.390Z,78.44
2022-09-15T05:58:47.551Z,78.21
2022-09-15T06:01:26.958Z,78.62
2022-09-15T06:03:55.703Z,78.95
2022-09-15T06:06:24.322Z,79.13
2022-09-15T06:08:58.984Z,79.24
2022-09-15T06:11:31.328Z,79.16
2022-09-15T06:14:20.331Z,79.47
2022-09-15T06:16:47.338Z,79.66
2022-09-15T06:19:14.837Z,79.20
2022-09-15T06:21:41.772Z,79.60
2022-09-15T06:24:12.586Z,79.68
2022-09-15T06:26:40.076Z,79.81
2022-09-15T06:29:08.059Z,80.01
2022-09-15T06:31:35.792Z,80.08
2022-09-15T06:34:04.119Z,79.77
2022-09-15T06:36:31.870Z,80.20
2022-09-15T06:38:59.731Z,79.92
2022-09-15T06:41:38.291Z,80.00
2022-09-15T06:44:22.252Z,80.18
2022-09-15T06:46:50.162Z,80.38
2022-09-15T06:49:17.750Z,80.42
2022-09-15T06:51:44.850Z,80.81
2022-09-15T06:54:12.164Z,80.16
2022-09-15T06:56:39.694Z,80.38
2022-09-15T06:59:07.420Z,80.52
2022-09-15T07:01:35.100Z,80.89
2022-09-15T07:04:05.893Z,80.47
2022-09-15T07:06:33.966Z,80.64
2022-09-15T07:09:02.445Z,80.76
2022-09-15T07:11:30.143Z,80.33
2022-09-15T07:13:57.421Z,80.19
2022-09-15T07:16:27.823Z,79.67
2022-09-15T07:19:01.809Z,79.44
2022-09-15T07:21:28.725Z,79.83
2022-09-15T07:23:58.087Z,78.86
2022-09-15T07:26:28.487Z,79.10
2022-09-15T07:29:02.416Z,78.69
2022-09-15T07:31:32.668Z,78.30
2022-09-15T07:34:01.085Z,78.25
2022-09-15T07:36:29.693Z,78.21
2022-09-15T07:38:56.908Z,77.87
2022-09-15T07:41:29.980Z,77.88
2022-09-15T07:43:59.676Z,78.21
2022-09-15T07:46:30.705Z,77.98
2022-09-15T07:48:57.778Z,78.18
2022-09-15T07:51:26.087Z,77.87
2022-09-15T07:53:54.000Z,78.03
2022-09-15T07:56:22.088Z,77.62
2022-09-15T07:58:50.162Z,77.44
2022-09-15T08:01:19.685Z,77.86
2022-09-15T08:03:50.070Z,77.19
2022-09-15T08:06:20.739Z,77.36
2022-09-15T08:08:49.108Z,77.52
2022-09-15T08:11:22.469Z,77.27
2022-09-15T08:13:52.400Z,77.26
2022-09-15T08:16:24.499Z,77.40
2022-09-15T08:18:55.550Z,77.13
2022-09-15T08:21:23.666Z,76.87
2022-09-15T08:23:57.327Z,76.47
2022-09-15T08:26:26.488Z,76.06
2022-09-15T08:28:53.942Z,76.13
2022-09-15T08:31:21.382Z,75.75
2022-09-15T08:33:53.914Z,75.46
2022-09-15T08:36:22.330Z,74.95
2022-09-15T08:38:49.839Z,75.10
2022-09-15T08:41:49.813Z,75.41
2022-09-15T08:44:40.132Z,75.28
2022-09-15T08:47:35.512Z,74.11
2022-09-15T08:50:27.423Z,74.79
2022-09-15T08:53:06.738Z,73.94
2022-09-15T08:55:55.530Z,73.42
2022-09-15T08:58:32.324Z,72.96
2022-09-15T09:01:11.440Z,72.06
2022-09-15T09:03:59.952Z,72.75
2022-09-15T09:06:52.070Z,73.49
2022-09-15T09:09:51.879Z,71.95
2022-09-15T09:12:42.166Z,70.68
2022-09-15T09:15:43.846Z,70.14
2022-09-15T09:18:42.132Z,70.04
2022-09-15T09:21:30.867Z,69.80
2022-09-15T09:24:03.262Z,68.45
2022-09-15T09:26:34.680Z,67.71
2022-09-15T09:29:19.728Z,66.98
2022-09-15T09:31:50.295Z,66.93
2022-09-15T09:34:35.685Z,66.20
2022-09-15T09:37:13.314Z,66.25
2022-09-15T09:39:41.110Z,66.81
2022-09-15T09:42:16.929Z,66.64
2022-09-15T09:44:45.041Z,66.35
2022-09-15T09:47:13.309Z,65.73
2022-09-15T09:49:47.769Z,65.55
2022-09-15T09:52:34.444Z,64.92
2022-09-15T09:55:23.453Z,63.57
2022-09-15T09:57:50.776Z,63.74
2022-09-15T10:00:38.934Z,63.78
2022-09-15T10:03:17.706Z,63.93
2022-09-15T10:05:59.363Z,63.60
2022-09-15T10:08:26.356Z,63.83
2022-09-15T10:10:56.070Z,62.55
2022-09-15T10:13:23.071Z,62.91
2022-09-15T10:16:00.857Z,61.47
2022-09-15T10:18:38.961Z,61.54
2022-09-15T10:21:09.874Z,61.40
2022-09-15T10:23:37.482Z,61.57
2022-09-15T10:26:16.837Z,59.88
2022-09-15T10:28:46.027Z,58.22
2022-09-15T10:31:30.779Z,59.43
2022-09-15T10:33:57.863Z,58.97
2022-09-15T10:36:32.082Z,58.14
2022-09-15T10:39:19.782Z,57.10
2022-09-15T10:42:04.491Z,57.84
2022-09-15T10:44:52.603Z,58.25
2022-09-15T10:48:02.843Z,58.47
2022-09-15T10:51:22.713Z,58.08
2022-09-15T10:54:31.840Z,58.70
2022-09-15T10:57:21.902Z,56.99
2022-09-15T11:00:12.788Z,57.74
2022-09-15T11:03:39.988Z,57.03
2022-09-15T11:06:32.503Z,56.54
2022-09-15T11:09:02.038Z,55.92
2022-09-15T11:11:46.107Z,54.59
2022-09-15T11:14:51.716Z,53.61
2022-09-15T11:17:37.033Z,54.26
2022-09-15T11:21:02.184Z,54.37
2022-09-15T11:23:40.742Z,54.70
2022-09-15T11:26:16.186Z,54.27
2022-09-15T11:28:56.645Z,53.36
2022-09-15T11:31:42.118Z,54.11
2022-09-15T11:34:39.077Z,53.67
2022-09-15T11:37:20.500Z,53.33
2022-09-15T11:39:55.552Z,51.37
2022-09-15T11:42:42.623Z,51.99
2022-09-15T11:45:20.806Z,52.12
2022-09-15T11:47:53.848Z,51.74
2022-09-15T11:50:29.391Z,51.42
2022-09-15T11:53:05.125Z,50.96
2022-09-15T11:55:40.663Z,50.87
2022-09-15T11:58:34.848Z,50.53
2022-09-15T12:01:10.980Z,51.04
2022-09-15T12:03:45.979Z,51.72
2022-09-15T12:07:01.743Z,51.88
2022-09-15T12:09:29.278Z,52.39
2022-09-15T12:12:07.890Z,51.26
2022-09-15T12:14:42.865Z,50.25
2022-09-15T12:17:22.384Z,50.54
2022-09-15T12:20:16.509Z,49.22
2022-09-15T12:22:54.970Z,50.67
2022-09-15T12:25:44.763Z,50.29
2022-09-15T12:28:24.130Z,50.35
2022-09-15T12:31:33.991Z,49.78
2022-09-15T12:34:26.137Z,49.97
2022-09-15T12:37:14.961Z,50.03
2022-09-15T12:39:49.183Z,50.64
2022-09-15T12:42:22.200Z,50.16
2022-09-15T12:44:54.112Z,50.24
2022-09-15T12:47:33.955Z,49.88
2022-09-15T12:50:16.269Z,50.21
2022-09-15T12:52:48.480Z,49.28
2022-09-15T12:55:24.023Z,49.77
2022-09-15T12:57:58.634Z,49.53
2022-09-15T13:00:49.994Z,50.10
2022-09-15T13:06:10.791Z,49.62
2022-09-15T13:08:38.207Z,49.82
2022-09-15T13:11:28.564Z,49.01
2022-09-15T13:14:06.676Z,48.92
2022-09-15T13:17:04.386Z,48.85
2022-09-15T13:19:46.678Z,47.40
2022-09-15T13:22:16.658Z,48.32
2022-09-15T13:25:15.725Z,47.75
2022-09-15T13:28:02.717Z,48.13
2022-09-15T13:31:11.153Z,47.46
2022-09-15T13:40:30.822Z,47.38
2022-09-15T13:43:11.972Z,46.21
2022-09-15T13:45:45.882Z,46.05
2022-09-15T13:48:40.748Z,46.67
2022-09-15T13:51:25.560Z,46.21
2022-09-15T13:54:08.393Z,46.55
2022-09-15T13:56:39.630Z,47.28
2022-09-15T13:59:17.079Z,47.22
2022-09-15T14:01:45.244Z,47.65
2022-09-15T14:04:24.483Z,48.25
2022-09-15T14:07:01.001Z,48.75
2022-09-15T14:09:39.624Z,49.50
2022-09-15T14:12:13.690Z,49.10
2022-09-15T14:14:54.712Z,49.28
2022-09-15T14:17:28.863Z,50.32
2022-09-15T14:19:59.326Z,50.78
2022-09-15T14:22:35.868Z,50.74
2022-09-15T14:25:15.093Z,51.95
2022-09-15T14:27:46.975Z,51.98
2022-09-15T14:30:28.197Z,50.84
2022-09-15T14:33:00.805Z,50.63
2022-09-15T14:35:36.439Z,50.59
2022-09-15T14:38:04.250Z,49.82
2022-09-15T14:40:41.332Z,50.14
2022-09-15T14:43:40.381Z,50.36
2022-09-15T14:46:13.090Z,50.96
2022-09-15T14:48:40.121Z,50.28
2022-09-15T14:51:33.104Z,50.65
2022-09-15T14:54:03.230Z,50.41
2022-09-15T14:56:35.655Z,50.58
2022-09-15T14:59:11.227Z,50.51
2022-09-15T15:01:43.959Z,51.11
2022-09-15T15:04:33.291Z,50.61
2022-09-15T15:07:28.099Z,50.67
2022-09-15T15:09:59.319Z,51.14
2022-09-15T15:12:32.327Z,51.04
2022-09-15T15:15:00.544Z,51.26
2022-09-15T15:17:45.303Z,51.11
2022-09-15T15:20:16.647Z,50.96
2022-09-15T15:22:45.199Z,50.73
2022-09-15T15:25:32.412Z,51.16
2022-09-15T15:28:01.044Z,51.34
2022-09-15T15:30:47.121Z,51.72
2022-09-15T15:33:27.599Z,51.21
2022-09-15T15:36:04.505Z,51.60
2022-09-15T15:38:47.617Z,51.42
2022-09-15T15:41:24.984Z,51.51
2022-09-15T15:44:07.712Z,50.77
2022-09-15T15:46:58.597Z,50.76
2022-09-15T15:49:29.897Z,51.07
2022-09-15T15:51:59.029Z,50.74
2022-09-15T15:54:27.733Z,50.49
2022-09-15T15:56:55.284Z,50.30
2022-09-15T15:59:22.268Z,49.81
2022-09-15T16:01:55.482Z,49.41
2022-09-15T16:04:22.515Z,49.66
2022-09-15T16:06:50.902Z,48.36
2022-09-15T16:09:19.380Z,48.43
2022-09-15T16:11:46.732Z,48.26
2022-09-15T16:14:14.301Z,48.22
2022-09-15T16:16:41.796Z,48.62
2022-09-15T16:19:08.894Z,48.70
2022-09-15T16:21:40.295Z,48.27
2022-09-15T16:24:14.405Z,48.25
2022-09-15T16:26:42.731Z,48.58
2022-09-15T16:29:10.333Z,48.02
2022-09-15T16:31:38.257Z,48.74
2022-09-15T16:34:05.370Z,48.67
2022-09-15T16:36:36.238Z,49.03
2022-09-15T16:39:04.535Z,49.34
2022-09-15T16:41:34.817Z,49.42
2022-09-15T16:44:04.349Z,49.57
2022-09-15T16:46:31.405Z,49.83
2022-09-15T16:48:58.398Z,49.77
2022-09-15T16:51:31.019Z,49.78
2022-09-15T16:53:58.938Z,49.70
2022-09-15T16:56:27.028Z,50.19
2022-09-15T16:58:59.479Z,50.23
2022-09-15T17:01:27.536Z,50.73
2022-09-15T17:03:54.790Z,51.03
2022-09-15T17:06:22.372Z,51.77
2022-09-15T17:08:49.824Z,51.96
2022-09-15T17:11:19.805Z,52.54
2022-09-15T17:13:47.123Z,52.60
2022-09-15T17:16:19.361Z,53.08
2022-09-15T17:18:46.953Z,53.66
2022-09-15T17:21:16.740Z,53.99
2022-09-15T17:23:49.551Z,54.20
2022-09-15T17:26:31.052Z,54.28
2022-09-15T17:28:58.689Z,54.37
2022-09-15T17:31:27.913Z,54.93
2022-09-15T17:33:54.980Z,54.65
2022-09-15T17:36:22.794Z,54.68
2022-09-15T17:38:50.187Z,54.73
2022-09-15T17:41:20.466Z,55.10
2022-09-15T17:43:47.749Z,55.03
2022-09-15T17:46:16.165Z,55.48
2022-09-15T17:48:43.653Z,55.18
2022-09-15T17:51:17.123Z,55.36
2022-09-15T17:53:45.189Z,55.68
2022-09-15T17:56:12.506Z,55.72
2022-09-15T17:58:39.874Z,56.13
2022-09-15T18:01:06.859Z,56.00
2022-09-15T18:03:36.967Z,56.13
2022-09-15T18:06:08.029Z,56.15
2022-09-15T18:08:38.817Z,55.87
2022-09-15T18:11:07.091Z,55.94
2022-09-15T18:13:34.522Z,56.32
2022-09-15T18:16:13.164Z,57.17
2022-09-15T18:18:40.966Z,56.84
2022-09-15T18:21:14.675Z,56.78
2022-09-15T18:23:42.496Z,57.42
2022-09-15T18:26:09.463Z,57.40
2022-09-15T18:28:36.463Z,57.50
2022-09-15T18:31:03.847Z,57.19
2022-09-15T18:33:30.796Z,57.71
2022-09-15T18:35:59.131Z,57.44
2022-09-15T18:38:26.579Z,57.48
2022-09-15T18:40:56.555Z,57.47
2022-09-15T18:43:26.921Z,57.81
2022-09-15T18:45:59.804Z,57.80
2022-09-15T18:48:27.600Z,58.25
2022-09-15T18:50:54.973Z,57.91
2022-09-15T18:53:22.015Z,58.22
2022-09-15T18:55:49.003Z,57.87
2022-09-15T18:58:15.947Z,57.92
2022-09-15T19:00:45.695Z,58.39
2022-09-15T19:03:14.331Z,57.73
2022-09-15T19:05:41.945Z,57.83
2022-09-15T19:08:10.914Z,58.15
2022-09-15T19:10:40.691Z,57.50
2022-09-15T19:13:07.709Z,57.83
2022-09-15T19:15:35.229Z,58.20
2022-09-15T19:18:02.233Z,57.94
2022-09-15T19:20:30.107Z,58.18
2022-09-15T19:22:58.344Z,57.37
2022-09-15T19:25:25.364Z,57.92
2022-09-15T19:27:52.277Z,57.59
2022-09-15T19:30:19.352Z,58.14
2022-09-15T19:32:46.392Z,58.25
2022-09-15T19:35:13.979Z,58.20
2022-09-15T19:37:42.691Z,57.95
2022-09-15T19:40:14.178Z,57.81
2022-09-15T19:42:43.677Z,57.75
2022-09-15T19:45:13.465Z,57.05
2022-09-15T19:47:41.632Z,57.07
2022-09-15T19:50:11.622Z,57.03
2022-09-15T19:52:38.685Z,57.32
2022-09-15T19:55:09.509Z,57.41
2022-09-15T19:57:41.473Z,57.35
2022-09-15T20:00:12.647Z,57.72
2022-09-15T20:02:40.344Z,57.97
2022-09-15T20:05:08.721Z,57.60
2022-09-15T20:07:35.976Z,57.47
2022-09-15T20:10:03.926Z,57.66
2022-09-15T20:12:31.347Z,57.12
2022-09-15T20:14:58.253Z,56.92
2022-09-15T20:17:25.350Z,57.75
2022-09-15T20:19:52.251Z,57.58
2022-09-15T20:22:19.156Z,57.44
2022-09-15T20:24:46.139Z,57.90
2022-09-15T20:27:13.062Z,57.93
2022-09-15T20:29:40.406Z,58.15
2022-09-15T20:32:07.315Z,58.36
2022-09-15T20:34:34.282Z,58.03
2022-09-15T20:37:01.314Z,58.01
2022-09-15T20:39:29.000Z,58.51
2022-09-15T20:41:57.702Z,58.59
2022-09-15T20:44:24.691Z,58.30
2022-09-15T20:46:51.852Z,58.44
2022-09-15T20:49:18.849Z,58.44
2022-09-15T20:51:45.835Z,58.45
2022-09-15T20:54:12.831Z,58.64
2022-09-15T20:56:40.307Z,58.28
2022-09-15T20:59:10.340Z,58.58
2022-09-15T21:01:39.103Z,57.76
2022-09-15T21:04:08.449Z,57.41
2022-09-15T21:06:36.034Z,58.13
2022-09-15T21:09:05.340Z,57.69
2022-09-15T21:11:33.147Z,58.47
2022-09-15T21:14:01.001Z,58.70
2022-09-15T21:16:29.153Z,58.56
2022-09-15T21:18:58.228Z,59.27
2022-09-15T21:21:30.009Z,59.82
2022-09-15T21:24:03.640Z,59.98
2022-09-15T21:26:35.326Z,60.19
2022-09-15T21:29:02.818Z,60.59
2022-09-15T21:31:32.973Z,60.47
2022-09-15T21:34:00.269Z,59.74
2022-09-15T21:36:30.179Z,59.33
2022-09-15T21:38:59.146Z,59.71
2022-09-15T21:41:32.175Z,59.41
2022-09-15T21:43:59.354Z,59.60
2022-09-15T21:46:29.610Z,59.68
2022-09-15T21:48:59.300Z,60.18
2022-09-15T21:51:28.939Z,60.13
2022-09-15T21:53:58.419Z,59.99
2022-09-15T21:56:27.455Z,60.08
2022-09-15T21:58:54.599Z,59.98
2022-09-15T22:01:25.788Z,59.86
2022-09-15T22:03:59.596Z,60.87
2022-09-15T22:06:31.951Z,60.95
2022-09-15T22:09:07.287Z,60.54
2022-09-15T22:11:35.684Z,60.51
2022-09-15T22:14:04.383Z,60.72
2022-09-15T22:16:33.880Z,61.63
2022-09-15T22:19:01.934Z,61.43
2022-09-15T22:21:36.745Z,62.24
2022-09-15T22:24:07.048Z,62.17
2022-09-15T22:26:37.637Z,62.35
2022-09-15T22:29:05.515Z,61.79
2022-09-15T22:31:33.004Z,61.60
2022-09-15T22:34:00.176Z,61.74
2022-09-15T22:36:30.461Z,61.25
2022-09-15T22:39:06.169Z,61.96
2022-09-15T22:41:39.229Z,62.19
2022-09-15T22:44:11.186Z,62.43
2022-09-15T22:46:38.218Z,62.51
2022-09-15T22:49:05.144Z,62.47
2022-09-15T22:51:32.143Z,62.43
2022-09-15T22:53:59.656Z,62.32
2022-09-15T22:56:26.986Z,62.12
2022-09-15T22:58:56.084Z,62.00
2022-09-15T23:01:30.487Z,62.59
2022-09-15T23:04:01.077Z,63.13
2022-09-15T23:06:32.902Z,62.76
2022-09-15T23:09:08.489Z,63.40
2022-09-15T23:11:39.695Z,63.01
2022-09-15T23:14:13.328Z,63.26
2022-09-15T23:16:40.636Z,63.26
2022-09-15T23:19:08.041Z,63.41
2022-09-15T23:21:35.071Z,63.18
2022-09-15T23:24:02.623Z,63.18
2022-09-15T23:26:29.549Z,63.18
2022-09-15T23:28:56.532Z,63.35
2022-09-15T23:31:23.683Z,63.56
2022-09-15T23:33:50.850Z,63.59
2022-09-15T23:36:19.612Z,63.84
2022-09-15T23:38:48.134Z,64.03
2022-09-15T23:41:16.935Z,63.92
2022-09-15T23:43:45.216Z,64.05
2022-09-15T23:46:12.750Z,63.71
2022-09-15T23:48:39.966Z,64.27
2022-09-15T23:51:07.083Z,64.63
2022-09-15T23:53:34.822Z,64.54
2022-09-15T23:56:02.584Z,64.65
2022-09-15T23:58:29.968Z,64.72
